Time;durP1;ratioP1;P1;durP2;ratioP2;P2;SDS_P1;SDS_P2;PMS_P1;PMS_P2;Temp;Humidity;BMP_temperature;BMP_pressure;BME280_temperature;BME280_humidity;BME280_pressure;Samples;Min_cycle;Max_cycle;Signal;HPM_P1;HPM_P2
2023/12/14 00:01:13;;;;;;;20.35;15.75;;;;;;;6.18;100.00;100637.94;5047421;28;20056;-60
2023/12/14 00:03:41;;;;;;;21.65;16.63;;;;;;;6.15;100.00;100647.19;5047476;28;20111;-60
2023/12/14 00:06:10;;;;;;;21.48;16.35;;;;;;;6.10;100.00;100652.09;5051197;28;20068;-60
2023/12/14 00:08:36;;;;;;;19.80;15.90;;;;;;;6.08;100.00;100664.03;5053996;28;20036;-61
2023/12/14 00:11:10;;;;;;;20.63;15.10;;;;;;;6.07;100.00;100659.69;5038378;28;20028;-60
2023/12/14 00:13:37;;;;;;;17.65;14.32;;;;;;;6.03;100.00;100655.19;5064471;28;20052;-60
2023/12/14 00:16:03;;;;;;;18.67;14.45;;;;;;;5.99;100.00;100667.88;5054494;28;20021;-61
2023/12/14 00:18:28;;;;;;;18.42;14.52;;;;;;;5.95;100.00;100676.28;5065344;28;20103;-60
2023/12/14 00:20:53;;;;;;;16.13;13.65;;;;;;;5.95;100.00;100673.72;5066598;28;20048;-60
2023/12/14 00:23:19;;;;;;;17.05;14.05;;;;;;;5.91;100.00;100683.75;5062980;28;20107;-61
2023/12/14 00:25:45;;;;;;;19.08;15.02;;;;;;;5.87;100.00;100690.44;5060249;28;20389;-60
2023/12/14 00:28:10;;;;;;;19.85;15.50;;;;;;;5.86;100.00;100698.97;5073970;28;20257;-61
2023/12/14 00:30:35;;;;;;;19.38;15.35;;;;;;;5.85;100.00;100703.22;5070274;28;20020;-62
2023/12/14 00:33:01;;;;;;;19.17;15.43;;;;;;;5.85;100.00;100702.34;5053611;28;20042;-61
2023/12/14 00:35:27;;;;;;;19.95;15.38;;;;;;;5.83;100.00;100714.28;5053676;28;20550;-60
2023/12/14 00:37:52;;;;;;;21.65;17.15;;;;;;;5.81;100.00;100721.88;5053920;28;20477;-61
2023/12/14 00:40:17;;;;;;;21.67;16.55;;;;;;;5.82;100.00;100727.91;5050699;28;20036;-60
2023/12/14 00:42:43;;;;;;;22.95;16.88;;;;;;;5.81;100.00;100734.72;5052936;28;20487;-61
2023/12/14 00:45:09;;;;;;;22.45;17.08;;;;;;;5.81;100.00;100741.59;5072801;28;20012;-60
2023/12/14 00:47:34;;;;;;;23.83;18.02;;;;;;;5.75;100.00;100743.06;5064051;28;20029;-61
2023/12/14 00:49:59;;;;;;;28.58;20.38;;;;;;;5.75;100.00;100753.34;5056626;28;20051;-61
2023/12/14 00:52:26;;;;;;;26.00;19.08;;;;;;;5.76;100.00;100755.09;5063764;28;20148;-60
2023/12/14 00:54:51;;;;;;;27.77;19.05;;;;;;;5.74;100.00;100761.84;5055721;28;20104;-61
2023/12/14 00:57:16;;;;;;;29.05;20.83;;;;;;;5.74;100.00;100759.28;5063402;28;20021;-61
2023/12/14 00:59:42;;;;;;;29.77;21.27;;;;;;;5.71;100.00;100764.25;5039485;28;20021;-61
2023/12/14 01:02:07;;;;;;;29.90;20.75;;;;;;;5.69;100.00;100770.13;5064043;28;20355;-61
2023/12/14 01:04:32;;;;;;;30.50;21.15;;;;;;;5.65;100.00;100766.50;5057058;28;20059;-61
2023/12/14 01:06:57;;;;;;;28.63;20.08;;;;;;;5.62;100.00;100771.50;5053331;28;20594;-61
2023/12/14 01:09:23;;;;;;;28.17;18.95;;;;;;;5.59;100.00;100768.78;5066017;28;20071;-60
2023/12/14 01:11:48;;;;;;;28.23;18.63;;;;;;;5.56;100.00;100779.78;5060387;28;20016;-60
2023/12/14 01:14:13;;;;;;;27.38;20.73;;;;;;;5.56;100.00;100778.91;5045122;28;20158;-60
2023/12/14 01:16:39;;;;;;;29.00;20.13;;;;;;;5.52;100.00;100780.44;5039364;28;20029;-60
2023/12/14 01:19:05;;;;;;;28.88;19.67;;;;;;;5.49;100.00;100781.16;5049876;28;20476;-60
2023/12/14 01:21:31;;;;;;;27.48;18.65;;;;;;;5.48;100.00;100789.69;5049926;28;20033;-60
2023/12/14 01:23:56;;;;;;;28.58;19.88;;;;;;;5.45;100.00;100794.66;5049662;28;20040;-61
2023/12/14 01:26:21;;;;;;;25.00;17.73;;;;;;;5.42;100.00;100809.91;5055503;28;20390;-61
2023/12/14 01:28:47;;;;;;;25.50;19.02;;;;;;;5.37;100.00;100811.34;5044118;28;20032;-60
2023/12/14 01:31:12;;;;;;;26.40;18.27;;;;;;;5.36;100.00;100815.59;5039940;28;20021;-61
2023/12/14 01:33:37;;;;;;;27.88;19.13;;;;;;;5.36;100.00;100825.03;5040528;28;20033;-60
2023/12/14 01:36:03;;;;;;;26.20;17.25;;;;;;;5.35;100.00;100833.53;5059807;28;20103;-60
2023/12/14 01:38:29;;;;;;;24.55;17.33;;;;;;;5.34;100.00;100839.47;5058928;28;20036;-60
2023/12/14 01:40:56;;;;;;;22.65;17.20;;;;;;;5.31;100.00;100836.75;5053075;28;20027;-61
2023/12/14 01:43:21;;;;;;;25.17;16.58;;;;;;;5.27;100.00;100841.69;5064341;28;20032;-61
2023/12/14 01:45:47;;;;;;;22.10;16.73;;;;;;;5.27;100.00;100851.97;5039674;28;20025;-60
2023/12/14 01:48:12;;;;;;;20.10;15.00;;;;;;;5.24;100.00;100845.78;5049764;28;20048;-61
2023/12/14 01:50:38;;;;;;;21.15;15.55;;;;;;;5.23;100.00;100859.44;5064983;28;20453;-60
2023/12/14 01:53:04;;;;;;;19.35;14.82;;;;;;;5.21;100.00;100861.03;5065362;28;20024;-60
2023/12/14 01:55:29;;;;;;;22.33;14.98;;;;;;;5.19;100.00;100866.09;5057699;28;20027;-60
2023/12/14 01:57:54;;;;;;;19.52;15.07;;;;;;;5.17;100.00;100880.56;5055464;28;20075;-60
2023/12/14 02:00:39;;;;;;;20.55;15.85;;;;;;;5.14;100.00;100881.28;5060328;28;20032;-59
2023/12/14 02:03:05;;;;;;;19.23;15.23;;;;;;;5.12;100.00;100887.13;5036794;28;20021;-60
2023/12/14 02:05:30;;;;;;;19.95;15.23;;;;;;;5.09;100.00;100892.97;5060141;28;20384;-60
2023/12/14 02:07:56;;;;;;;22.17;15.70;;;;;;;5.07;100.00;100893.69;5067077;28;20365;-61
2023/12/14 02:10:22;;;;;;;19.05;14.40;;;;;;;5.04;100.00;100895.28;5057947;28;20029;-61
2023/12/14 02:12:47;;;;;;;19.73;15.05;;;;;;;5.04;100.00;100895.28;5049171;28;20039;-60
2023/12/14 02:15:12;;;;;;;21.63;15.27;;;;;;;5.02;100.00;100896.88;5049103;28;20021;-60
2023/12/14 02:17:38;;;;;;;20.55;15.15;;;;;;;5.02;100.00;100908.84;5047689;28;20093;-61
2023/12/14 02:20:04;;;;;;;20.67;15.23;;;;;;;5.01;100.00;100915.69;5049159;28;20183;-60
2023/12/14 02:22:49;;;;;;;21.20;15.27;;;;;;;5.02;100.00;100917.44;5048243;28;20476;-61
2023/12/14 02:25:14;;;;;;;20.40;15.20;;;;;;;5.01;100.00;100928.53;5060467;28;20074;-60
2023/12/14 02:27:39;;;;;;;25.67;18.10;;;;;;;5.01;100.00;100938.78;5053862;28;20484;-61
2023/12/14 02:30:05;;;;;;;18.48;14.82;;;;;;;4.99;100.00;100937.81;5067903;28;20020;-60
2023/12/14 02:32:30;;;;;;;21.67;15.93;;;;;;;4.98;100.00;100941.19;5066311;28;20353;-61
2023/12/14 02:34:55;;;;;;;22.23;15.55;;;;;;;5.00;100.00;100943.84;5046558;28;20029;-61
2023/12/14 02:37:21;;;;;;;20.00;15.68;;;;;;;4.99;100.00;100945.53;5063891;28;20030;-60
2023/12/14 02:39:47;;;;;;;19.52;15.40;;;;;;;4.98;100.00;100951.47;5056751;28;20522;-60
2023/12/14 02:42:13;;;;;;;20.30;15.73;;;;;;;4.99;100.00;100955.81;5043365;28;20057;-60
2023/12/14 02:44:39;;;;;;;18.65;14.57;;;;;;;4.95;100.00;100953.84;5029785;28;20045;-60
2023/12/14 02:47:04;;;;;;;18.92;14.80;;;;;;;4.94;100.00;100964.94;5045644;28;20525;-60
2023/12/14 02:49:29;;;;;;;17.33;13.55;;;;;;;4.90;100.00;100970.69;5056206;28;20053;-61
2023/12/14 02:51:54;;;;;;;20.70;15.18;;;;;;;4.89;100.00;100976.63;5047297;28;20029;-60
2023/12/14 02:54:20;;;;;;;20.30;14.40;;;;;;;4.87;100.00;100966.28;5053240;28;20063;-60
2023/12/14 02:56:45;;;;;;;18.17;13.85;;;;;;;4.89;100.00;100974.06;5046938;28;20358;-61
2023/12/14 02:59:10;;;;;;;20.65;14.55;;;;;;;4.86;100.00;100982.47;5047829;28;20029;-61
2023/12/14 03:01:36;;;;;;;20.77;15.18;;;;;;;4.86;100.00;100981.56;5048083;28;20029;-61
2023/12/14 03:04:02;;;;;;;21.25;15.38;;;;;;;4.85;100.00;100990.06;5055132;28;20031;-61
2023/12/14 03:06:27;;;;;;;23.92;15.77;;;;;;;4.85;100.00;100995.22;5049883;28;20392;-61
2023/12/14 03:08:53;;;;;;;19.08;14.85;;;;;;;4.86;100.00;100996.97;5047284;28;20032;-61
2023/12/14 03:11:25;;;;;;;20.80;15.57;;;;;;;4.86;100.00;101003.00;5048157;28;20060;-60
2023/12/14 03:13:51;;;;;;;20.23;15.73;;;;;;;4.85;100.00;101005.47;5048637;28;20017;-60
2023/12/14 03:16:18;;;;;;;19.23;14.98;;;;;;;4.84;100.00;101006.28;5058790;28;20051;-60
2023/12/14 03:18:44;;;;;;;20.60;14.75;;;;;;;4.79;100.00;101006.91;5047302;28;20036;-61
2023/12/14 03:21:09;;;;;;;22.70;16.15;;;;;;;4.79;100.00;101014.59;5052600;28;20013;-61
2023/12/14 03:23:35;;;;;;;19.20;14.07;;;;;;;4.78;100.00;101014.53;5047592;28;20017;-61
2023/12/14 03:26:01;;;;;;;21.30;14.77;;;;;;;4.78;100.00;101015.41;5048061;28;20016;-60
2023/12/14 03:28:26;;;;;;;18.48;14.65;;;;;;;4.75;100.00;101017.78;5047419;28;20023;-61
2023/12/14 03:30:51;;;;;;;21.88;16.33;;;;;;;4.74;100.00;101021.16;5047586;28;20475;-60
2023/12/14 03:33:17;;;;;;;19.75;14.77;;;;;;;4.73;100.00;101019.38;5047846;28;20120;-60
2023/12/14 03:35:43;;;;;;;20.40;14.75;;;;;;;4.74;100.00;101012.56;5047040;28;20095;-60
2023/12/14 03:38:09;;;;;;;21.13;16.23;;;;;;;4.74;100.00;101017.69;5048158;28;20437;-60
2023/12/14 03:40:34;;;;;;;20.35;15.55;;;;;;;4.71;100.00;101018.41;5062465;28;20111;-60
2023/12/14 03:42:59;;;;;;;21.15;16.50;;;;;;;4.69;100.00;101017.44;5066461;28;20051;-61
2023/12/14 03:45:24;;;;;;;20.45;15.73;;;;;;;4.66;100.00;101025.81;5063813;28;20059;-61
2023/12/14 03:47:50;;;;;;;24.08;16.65;;;;;;;4.67;100.00;101026.72;5054925;28;20049;-60
2023/12/14 03:50:15;;;;;;;21.05;15.70;;;;;;;4.64;100.00;101036.81;5050075;28;20020;-61
2023/12/14 03:52:40;;;;;;;19.25;15.48;;;;;;;4.64;100.00;101036.81;5056374;28;20021;-61
2023/12/14 03:55:06;;;;;;;21.20;16.23;;;;;;;4.63;100.00;101047.88;5058106;28;20402;-60
2023/12/14 03:57:32;;;;;;;20.92;16.30;;;;;;;4.64;100.00;101047.94;5046933;28;20028;-61
2023/12/14 03:59:58;;;;;;;19.48;15.80;;;;;;;4.67;100.00;101052.41;5047348;28;20021;-60
2023/12/14 04:02:23;;;;;;;21.25;16.88;;;;;;;4.64;100.00;101054.78;5048289;28;20051;-60
2023/12/14 04:04:48;;;;;;;21.10;15.85;;;;;;;4.62;100.00;101049.56;5046942;28;20032;-60
2023/12/14 04:07:14;;;;;;;22.52;16.38;;;;;;;4.61;100.00;101052.00;5046883;28;20378;-60
2023/12/14 04:09:39;;;;;;;18.08;14.95;;;;;;;4.62;100.00;101051.25;5046156;28;20159;-60
2023/12/14 04:12:05;;;;;;;18.33;15.77;;;;;;;4.61;100.00;101054.59;5048027;28;20032;-60
2023/12/14 04:14:31;;;;;;;18.60;15.55;;;;;;;4.58;100.00;101047.59;5047635;28;20025;-60
2023/12/14 04:16:57;;;;;;;20.63;16.30;;;;;;;4.57;100.00;101053.50;5046830;28;20115;-61
2023/12/14 04:19:22;;;;;;;18.95;15.23;;;;;;;4.53;100.00;101052.44;5046546;28;20032;-61
2023/12/14 04:21:48;;;;;;;19.98;16.08;;;;;;;4.52;100.00;101052.34;5046948;28;20029;-60
2023/12/14 04:24:13;;;;;;;17.77;14.90;;;;;;;4.50;100.00;101057.41;5059884;28;20152;-61
2023/12/14 04:26:39;;;;;;;17.92;14.80;;;;;;;4.50;100.00;101062.53;5037254;28;20104;-60
2023/12/14 04:29:06;;;;;;;22.20;16.38;;;;;;;4.48;100.00;101076.09;5033823;28;20025;-60
2023/12/14 04:31:34;;;;;;;20.90;15.70;;;;;;;4.46;100.00;101078.56;5057064;28;20032;-61
2023/12/14 04:33:59;;;;;;;20.33;15.75;;;;;;;4.43;100.00;101083.47;5046735;28;20434;-60
2023/12/14 04:36:24;;;;;;;19.67;15.50;;;;;;;4.44;100.00;101085.28;5048029;28;20151;-60
2023/12/14 04:38:50;;;;;;;17.35;14.93;;;;;;;4.45;100.00;101097.31;5047174;28;20025;-61
2023/12/14 04:41:15;;;;;;;19.27;15.23;;;;;;;4.43;100.00;101104.00;5047564;28;21239;-60
2023/12/14 04:43:40;;;;;;;18.63;14.70;;;;;;;4.44;100.00;101111.81;5046859;28;20017;-60
2023/12/14 04:46:06;;;;;;;20.85;14.68;;;;;;;4.45;100.00;101112.69;5046930;28;20025;-61
2023/12/14 04:48:31;;;;;;;18.03;14.23;;;;;;;4.46;100.00;101126.44;5046302;28;20128;-60
2023/12/14 04:50:57;;;;;;;18.10;15.20;;;;;;;4.48;100.00;101127.41;5046935;28;20025;-61
2023/12/14 04:53:22;;;;;;;17.00;15.13;;;;;;;4.48;100.00;101130.84;5050280;28;20021;-61
2023/12/14 04:55:47;;;;;;;18.50;14.95;;;;;;;4.48;100.00;101141.13;5039806;28;20037;-61
2023/12/14 04:58:13;;;;;;;19.03;15.23;;;;;;;4.46;100.00;101135.03;5052402;28;20024;-60
2023/12/14 05:00:38;;;;;;;18.13;15.23;;;;;;;4.48;100.00;101142.81;5058011;28;20029;-61
2023/12/14 05:03:04;;;;;;;19.52;16.23;;;;;;;4.47;100.00;101138.47;5050069;28;20592;-60
2023/12/14 05:05:29;;;;;;;16.80;14.38;;;;;;;4.48;100.00;101148.81;5050350;28;20078;-60
2023/12/14 05:07:54;;;;;;;21.52;16.75;;;;;;;4.48;100.00;101159.06;5053747;28;20028;-60
2023/12/14 05:10:20;;;;;;;20.37;16.73;;;;;;;4.47;100.00;101159.88;5048868;28;20097;-61
2023/12/14 05:12:45;;;;;;;21.77;16.65;;;;;;;4.48;100.00;101168.47;5050688;28;20028;-61
2023/12/14 05:15:11;;;;;;;19.85;16.50;;;;;;;4.48;100.00;101169.34;5051749;28;20028;-60
2023/12/14 05:17:36;;;;;;;20.60;16.10;;;;;;;4.47;100.00;101175.28;5049265;28;20082;-60
2023/12/14 05:20:04;;;;;;;19.40;16.02;;;;;;;4.46;100.00;101181.22;5039392;28;20021;-60
2023/12/14 05:22:29;;;;;;;19.75;16.85;;;;;;;4.46;100.00;101188.91;5050442;28;20017;-60
2023/12/14 05:24:54;;;;;;;18.58;15.40;;;;;;;4.44;100.00;101195.63;5050319;28;20381;-60
2023/12/14 05:27:20;;;;;;;19.77;15.83;;;;;;;4.45;100.00;101205.09;5048363;28;20025;-60
2023/12/14 05:29:45;;;;;;;19.90;16.53;;;;;;;4.46;100.00;101206.00;5049758;28;20025;-60
2023/12/14 05:32:10;;;;;;;21.27;15.93;;;;;;;4.45;100.00;101210.22;5049894;28;20021;-60
2023/12/14 05:34:35;;;;;;;18.38;15.43;;;;;;;4.46;100.00;101214.59;5051318;28;20098;-60
2023/12/14 05:37:01;;;;;;;18.70;16.05;;;;;;;4.46;100.00;101216.25;5050817;28;20024;-59
2023/12/14 05:39:26;;;;;;;20.57;17.20;;;;;;;4.46;100.00;101222.28;5051701;28;20036;-60
2023/12/14 05:41:51;;;;;;;19.35;16.45;;;;;;;4.46;100.00;101227.44;5050962;28;20029;-60
2023/12/14 05:44:16;;;;;;;18.85;15.95;;;;;;;4.47;100.00;101229.19;5047764;28;20102;-60
2023/12/14 05:46:42;;;;;;;19.52;16.42;;;;;;;4.46;100.00;101235.13;5045712;28;20025;-61
2023/12/14 05:49:07;;;;;;;20.73;16.95;;;;;;;4.47;100.00;101242.03;5051494;28;20140;-60
2023/12/14 05:51:33;;;;;;;18.15;15.98;;;;;;;4.47;100.00;101252.28;5063582;28;20024;-61
2023/12/14 05:53:58;;;;;;;21.25;16.02;;;;;;;4.47;100.00;101254.84;5058356;28;20029;-60
2023/12/14 05:56:25;;;;;;;19.17;16.73;;;;;;;4.48;100.00;101272.00;5056768;28;20033;-61
2023/12/14 05:58:50;;;;;;;20.05;16.98;;;;;;;4.49;100.00;101280.63;5053877;28;20053;-60
2023/12/14 06:01:18;;;;;;;19.33;16.70;;;;;;;4.48;100.00;101281.41;5054133;28;20059;-60
2023/12/14 06:03:44;;;;;;;21.35;17.45;;;;;;;4.48;100.00;101281.41;5045093;28;20024;-60
2023/12/14 06:06:11;;;;;;;22.88;15.43;;;;;;;4.46;100.00;101286.47;5060288;28;20585;-60
2023/12/14 06:08:37;;;;;;;18.57;16.13;;;;;;;4.45;100.00;101284.66;5046701;28;20017;-60
2023/12/14 06:11:02;;;;;;;18.48;16.00;;;;;;;4.44;100.00;101286.31;5054427;28;20016;-60
2023/12/14 06:13:28;;;;;;;19.98;16.95;;;;;;;4.44;100.00;101290.59;5032814;28;20116;-59
2023/12/14 06:15:53;;;;;;;19.75;15.60;;;;;;;4.44;100.00;101290.59;5036188;28;20499;-60
2023/12/14 06:18:20;;;;;;;20.48;16.85;;;;;;;4.46;100.00;101295.81;5038615;28;20017;-61
2023/12/14 06:20:45;;;;;;;19.38;16.00;;;;;;;4.44;100.00;101295.72;5057270;28;20199;-60
2023/12/14 06:23:11;;;;;;;20.50;15.87;;;;;;;4.42;100.00;101298.19;5047336;28;20017;-61
2023/12/14 06:25:36;;;;;;;18.92;16.27;;;;;;;4.44;100.00;101303.44;5048040;28;20090;-61
2023/12/14 06:28:01;;;;;;;17.30;15.45;;;;;;;4.44;100.00;101312.00;5049773;28;20059;-60
2023/12/14 06:30:26;;;;;;;18.85;15.70;;;;;;;4.43;100.00;101311.91;5046877;28;20362;-61
2023/12/14 06:32:52;;;;;;;18.55;15.45;;;;;;;4.42;100.00;101317.84;5044794;28;20029;-60
2023/12/14 06:35:17;;;;;;;18.83;15.52;;;;;;;4.42;100.00;101323.88;5046891;28;20055;-61
2023/12/14 06:37:42;;;;;;;20.60;15.83;;;;;;;4.42;100.00;101329.00;5033950;28;20408;-60
2023/12/14 06:40:09;;;;;;;18.58;16.33;;;;;;;4.41;100.00;101332.34;5046657;28;20095;-61
2023/12/14 06:42:34;;;;;;;19.10;16.13;;;;;;;4.41;100.00;101340.03;5043581;28;20036;-61
2023/12/14 06:45:02;;;;;;;17.23;15.13;;;;;;;4.43;100.00;101347.84;5039257;28;20033;-60
2023/12/14 06:47:28;;;;;;;18.30;16.25;;;;;;;4.42;100.00;101344.41;5027521;28;20029;-61
2023/12/14 06:49:53;;;;;;;18.98;16.83;;;;;;;4.42;100.00;101338.38;5036165;28;20048;-60
2023/12/14 06:52:18;;;;;;;19.65;16.63;;;;;;;4.42;100.00;101346.97;5036782;28;20117;-60
2023/12/14 06:54:44;;;;;;;20.30;16.85;;;;;;;4.43;100.00;101350.41;5040506;28;20024;-60
2023/12/14 06:57:09;;;;;;;19.38;16.23;;;;;;;4.45;100.00;101351.41;5043844;28;20674;-61
2023/12/14 06:59:34;;;;;;;18.48;15.95;;;;;;;4.45;100.00;101356.53;5043043;28;20997;-61
2023/12/14 07:01:59;;;;;;;20.08;16.77;;;;;;;4.46;100.00;101360.00;5039186;28;20044;-60
2023/12/14 07:04:25;;;;;;;21.13;17.02;;;;;;;4.44;100.00;101365.03;5036304;28;20033;-61
2023/12/14 07:06:51;;;;;;;18.45;15.60;;;;;;;4.44;100.00;101371.03;5039689;28;20060;-60
2023/12/14 07:09:19;;;;;;;22.52;17.33;;;;;;;4.43;100.00;101373.50;5039683;28;20493;-60
2023/12/14 07:11:44;;;;;;;19.10;16.67;;;;;;;4.43;100.00;101370.94;5037589;28;20193;-61
2023/12/14 07:14:09;;;;;;;20.50;17.55;;;;;;;4.44;100.00;101383.00;5037512;28;20432;-60
2023/12/14 07:16:35;;;;;;;21.15;16.95;;;;;;;4.41;100.00;101382.78;5045290;28;20025;-60
2023/12/14 07:19:00;;;;;;;22.07;17.83;;;;;;;4.42;100.00;101394.84;5047497;28;20450;-60
2023/12/14 07:21:25;;;;;;;25.20;18.57;;;;;;;4.41;100.00;101403.31;5047880;28;20480;-60
2023/12/14 07:23:50;;;;;;;23.05;17.55;;;;;;;4.40;100.00;101402.44;5052494;28;20111;-60
2023/12/14 07:26:16;;;;;;;28.85;19.55;;;;;;;4.38;100.00;101414.28;5051619;28;20021;-60
2023/12/14 07:28:41;;;;;;;28.20;18.77;;;;;;;4.36;100.00;101422.63;5036110;28;20029;-61
2023/12/14 07:31:06;;;;;;;23.60;18.07;;;;;;;4.36;100.00;101427.78;5046308;28;20028;-60
2023/12/14 07:33:31;;;;;;;26.38;18.45;;;;;;;4.33;100.00;101437.03;5050010;28;20158;-61
2023/12/14 07:35:57;;;;;;;23.50;18.38;;;;;;;4.32;100.00;101444.63;5046406;28;20032;-60
2023/12/14 07:38:22;;;;;;;27.17;18.10;;;;;;;4.30;100.00;101441.09;5041914;28;20022;-61
2023/12/14 07:40:50;;;;;;;22.15;17.10;;;;;;;4.29;100.00;101440.22;5042691;28;20045;-60
2023/12/14 07:43:15;;;;;;;23.23;16.52;;;;;;;4.29;100.00;101444.44;5047495;28;20048;-60
2023/12/14 07:45:40;;;;;;;24.52;17.08;;;;;;;4.29;100.00;101447.00;5047227;28;20481;-60
2023/12/14 07:48:06;;;;;;;21.90;16.65;;;;;;;4.26;100.00;101441.69;5046614;28;20093;-60
2023/12/14 07:50:31;;;;;;;22.08;16.58;;;;;;;4.26;100.00;101455.41;5040979;28;20020;-60
2023/12/14 07:52:56;;;;;;;22.88;16.50;;;;;;;4.26;100.00;101457.06;5040856;28;20021;-60
2023/12/14 07:55:21;;;;;;;21.07;15.00;;;;;;;4.25;100.00;101461.31;5039273;28;20094;-60
2023/12/14 07:57:47;;;;;;;20.60;15.38;;;;;;;4.23;100.00;101468.00;5040519;28;20021;-60
2023/12/14 08:00:12;;;;;;;20.30;13.80;;;;;;;4.24;100.00;101472.38;5046505;28;20367;-60
2023/12/14 08:02:38;;;;;;;19.60;15.18;;;;;;;4.25;100.00;101480.94;5046045;28;20029;-60
2023/12/14 08:05:05;;;;;;;17.73;13.65;;;;;;;4.25;100.00;101488.63;5045608;28;20043;-61
2023/12/14 08:07:31;;;;;;;20.55;13.77;;;;;;;4.25;100.00;101489.53;5046529;28;20103;-61
2023/12/14 08:09:57;;;;;;;18.45;14.10;;;;;;;4.24;100.00;101492.91;5049393;28;20044;-61
2023/12/14 08:12:24;;;;;;;18.13;12.97;;;;;;;4.23;100.00;101487.66;5042203;28;20021;-60
2023/12/14 08:14:49;;;;;;;16.42;12.98;;;;;;;4.20;100.00;101494.38;5066285;28;20032;-61
2023/12/14 08:17:14;;;;;;;13.05;11.07;;;;;;;4.19;100.00;101490.00;5052636;28;20036;-60
2023/12/14 08:19:40;;;;;;;13.63;11.05;;;;;;;4.19;100.00;101495.13;5050116;28;20048;-60
2023/12/14 08:22:07;;;;;;;13.48;11.13;;;;;;;4.19;100.00;101496.81;5045931;28;20074;-61
2023/12/14 08:24:32;;;;;;;14.35;11.57;;;;;;;4.19;100.00;101504.53;5041405;28;20043;-60
2023/12/14 08:26:58;;;;;;;13.07;10.63;;;;;;;4.19;100.00;101517.34;5041686;28;20507;-60
2023/12/14 08:29:23;;;;;;;15.00;10.63;;;;;;;4.19;100.00;101520.78;5051015;28;20079;-60
2023/12/14 08:31:48;;;;;;;12.37;9.97;;;;;;;4.20;100.00;101524.25;5052002;28;20060;-60
2023/12/14 08:34:14;;;;;;;14.13;10.17;;;;;;;4.18;100.00;101528.38;5052455;28;20390;-60
2023/12/14 08:36:39;;;;;;;12.97;10.47;;;;;;;4.20;100.00;101531.94;5052615;28;20485;-60
2023/12/14 08:39:05;;;;;;;14.63;11.73;;;;;;;4.20;100.00;101535.41;5050977;28;20104;-60
2023/12/14 08:41:30;;;;;;;15.15;9.90;;;;;;;4.21;100.00;101538.84;5051069;28;20457;-60
2023/12/14 08:43:55;;;;;;;14.17;10.43;;;;;;;4.20;100.00;101542.22;5050525;28;20032;-60
2023/12/14 08:46:21;;;;;;;15.70;10.73;;;;;;;4.20;100.00;101552.47;5051845;28;20055;-60
2023/12/14 08:48:47;;;;;;;14.93;10.57;;;;;;;4.19;100.00;101555.84;5048651;28;20485;-60
2023/12/14 08:51:12;;;;;;;12.10;10.67;;;;;;;4.19;100.00;101561.84;5051234;28;20136;-60
2023/12/14 08:53:38;;;;;;;13.48;11.05;;;;;;;4.18;100.00;101570.34;5048863;28;20477;-61
2023/12/14 08:56:03;;;;;;;12.98;11.07;;;;;;;4.13;100.00;101576.81;5038613;28;20029;-61
2023/12/14 08:58:29;;;;;;;11.67;9.80;;;;;;;4.11;100.00;101573.25;5044318;28;20393;-61
2023/12/14 09:00:54;;;;;;;11.63;9.93;;;;;;;4.10;100.00;101568.00;5044685;28;20029;-61
2023/12/14 09:03:20;;;;;;;11.27;10.05;;;;;;;4.08;100.00;101563.66;5063619;28;20029;-60
2023/12/14 09:05:45;;;;;;;9.83;8.77;;;;;;;4.10;100.00;101570.59;5038810;28;20100;-61
2023/12/14 09:08:11;;;;;;;16.15;10.43;;;;;;;4.10;100.00;101575.72;5031957;28;20029;-61
2023/12/14 09:10:37;;;;;;;11.98;9.40;;;;;;;4.09;100.00;101585.06;5044524;28;20029;-60
2023/12/14 09:13:04;;;;;;;11.60;9.87;;;;;;;4.10;100.00;101596.22;5049550;28;20111;-60
2023/12/14 09:15:33;;;;;;;13.87;10.40;;;;;;;4.07;100.00;101597.78;5050043;28;20028;-59
2023/12/14 09:17:58;;;;;;;11.57;9.40;;;;;;;4.10;100.00;101606.50;5050156;28;20053;-60
2023/12/14 09:20:25;;;;;;;11.77;9.90;;;;;;;4.08;100.00;101612.38;5050738;28;20068;-60
2023/12/14 09:22:50;;;;;;;11.13;9.67;;;;;;;4.08;100.00;101614.97;5055185;28;20026;-60
2023/12/14 09:25:16;;;;;;;11.23;9.87;;;;;;;4.09;100.00;101621.00;5059079;28;20020;-60
2023/12/14 09:27:41;;;;;;;10.53;9.37;;;;;;;4.09;100.00;101628.69;5045510;28;20033;-60
2023/12/14 09:30:07;;;;;;;12.13;10.00;;;;;;;4.10;100.00;101634.72;5030872;28;20040;-59
2023/12/14 09:32:33;;;;;;;10.93;9.37;;;;;;;4.12;100.00;101635.72;5030290;28;20842;-61
2023/12/14 09:34:58;;;;;;;10.63;9.53;;;;;;;4.12;100.00;101635.72;5055186;28;20036;-61
2023/12/14 09:37:23;;;;;;;11.30;10.10;;;;;;;4.10;100.00;101647.53;5050734;28;20058;-60
2023/12/14 09:39:49;;;;;;;11.93;10.50;;;;;;;4.10;100.00;101642.41;5048951;28;20548;-60
2023/12/14 09:42:17;;;;;;;12.03;10.33;;;;;;;4.10;100.00;101647.53;5049263;28;20025;-60
2023/12/14 09:44:43;;;;;;;11.10;9.80;;;;;;;4.11;100.00;101651.88;5050342;28;20048;-59
2023/12/14 09:47:08;;;;;;;11.30;10.10;;;;;;;4.13;100.00;101658.00;5036889;28;20799;-60
2023/12/14 09:49:35;;;;;;;11.65;9.85;;;;;;;4.14;100.00;101657.22;5050435;28;20068;-60
2023/12/14 09:52:02;;;;;;;12.63;9.88;;;;;;;4.14;100.00;101670.94;5044092;28;20022;-61
2023/12/14 09:54:28;;;;;;;11.23;10.02;;;;;;;4.14;100.00;101676.09;5043871;28;20039;-61
2023/12/14 09:56:54;;;;;;;11.93;10.40;;;;;;;4.15;100.00;101682.13;5036656;28;20025;-60
2023/12/14 09:59:20;;;;;;;11.17;9.40;;;;;;;4.17;100.00;101685.69;5049629;28;20094;-60
2023/12/14 10:01:46;;;;;;;12.37;10.47;;;;;;;4.15;100.00;101684.69;5039349;28;20539;-60
2023/12/14 10:04:16;;;;;;;12.07;10.60;;;;;;;4.15;100.00;101692.38;5038802;28;20029;-60
2023/12/14 10:06:44;;;;;;;11.43;8.93;;;;;;;4.15;100.00;101698.41;5053855;28;20039;-61
2023/12/14 10:09:13;;;;;;;14.20;10.60;;;;;;;4.15;100.00;101698.41;5043409;28;20105;-61
2023/12/14 10:11:39;;;;;;;11.60;9.63;;;;;;;4.16;100.00;101704.41;5039042;28;20041;-60
2023/12/14 10:14:25;;;;;;;10.97;9.33;;;;;;;4.14;100.00;101705.97;5049404;28;20110;-61
2023/12/14 10:16:52;;;;;;;11.73;9.50;;;;;;;4.13;100.00;101714.47;5041745;28;20037;-59
2023/12/14 10:19:18;;;;;;;13.13;9.60;;;;;;;4.11;100.00;101722.06;5056164;28;20035;-60
2023/12/14 10:21:46;;;;;;;13.17;9.73;;;;;;;4.13;100.00;101724.72;5040646;28;20033;-59
2023/12/14 10:24:11;;;;;;;11.50;9.40;;;;;;;4.13;100.00;101719.59;5044434;28;20147;-59
2023/12/14 10:26:36;;;;;;;11.52;9.38;;;;;;;4.12;100.00;101728.94;5049521;28;20105;-60
2023/12/14 10:29:04;;;;;;;10.20;8.63;;;;;;;4.10;100.00;101725.41;5048870;28;20044;-60
2023/12/14 10:31:30;;;;;;;10.80;9.33;;;;;;;4.08;100.00;101732.97;5049341;28;20099;-60
2023/12/14 10:33:55;;;;;;;12.27;9.60;;;;;;;4.09;100.00;101736.44;5061881;28;20031;-59
2023/12/14 10:36:25;;;;;;;12.63;9.97;;;;;;;4.10;100.00;101734.78;5049681;28;20036;-60
2023/12/14 10:38:57;;;;;;;12.48;10.55;;;;;;;4.09;100.00;101739.00;5049104;28;20384;-60
2023/12/14 10:41:23;;;;;;;12.93;9.67;;;;;;;4.10;100.00;101734.78;5049804;28;20029;-60
2023/12/14 10:43:50;;;;;;;11.57;9.13;;;;;;;4.10;100.00;101730.53;5036143;28;20025;-60
2023/12/14 10:46:19;;;;;;;10.60;9.37;;;;;;;4.14;100.00;101731.63;5036751;28;20397;-60
2023/12/14 10:48:47;;;;;;;9.97;8.63;;;;;;;4.16;100.00;101740.31;5032109;28;20040;-59
2023/12/14 10:51:12;;;;;;;10.60;9.07;;;;;;;4.19;100.00;101730.31;5038250;28;20468;-60
2023/12/14 10:53:38;;;;;;;9.80;8.80;;;;;;;4.22;100.00;101727.97;5048465;28;20128;-61
2023/12/14 10:56:09;;;;;;;10.67;9.20;;;;;;;4.26;100.00;101736.78;5061720;28;20103;-60
2023/12/14 10:58:52;;;;;;;9.93;7.93;;;;;;;4.30;100.00;101742.22;5029962;28;20025;-61
2023/12/14 11:01:20;;;;;;;9.60;8.60;;;;;;;4.30;100.00;101746.50;5044242;28;20481;-60
2023/12/14 11:03:46;;;;;;;9.45;7.85;;;;;;;4.29;100.00;101747.25;5049141;28;20025;-60